sensor_id;sensor_type;location;lat;lon;timestamp;P1;durP1;ratioP1;P2;durP2;ratioP2
8654;SDS011;13500;52.514;13.462;2023-05-10T00:02:02;8.20;;;4.40;;
8654;SDS011;13500;52.514;13.462;2023-05-10T00:04:30;5.37;;;4.47;;
8654;SDS011;13500;52.514;13.462;2023-05-10T00:06:58;6.13;;;4.53;;
8654;SDS011;13500;52.514;13.462;2023-05-10T00:09:26;5.97;;;4.47;;
8654;SDS011;13500;52.514;13.462;2023-05-10T00:11:54;5.23;;;4.73;;
8654;SDS011;13500;52.514;13.462;2023-05-10T00:14:24;5.57;;;5.07;;
8654;SDS011;13500;52.514;13.462;2023-05-10T00:16:52;6.27;;;4.87;;
8654;SDS011;13500;52.514;13.462;2023-05-10T00:19:21;6.90;;;4.80;;
8654;SDS011;13500;52.514;13.462;2023-05-10T00:21:49;5.57;;;4.30;;
8654;SDS011;13500;52.514;13.462;2023-05-10T00:24:17;6.47;;;4.70;;
8654;SDS011;13500;52.514;13.462;2023-05-10T00:26:45;8.33;;;4.67;;
8654;SDS011;13500;52.514;13.462;2023-05-10T00:29:13;6.03;;;4.87;;
8654;SDS011;13500;52.514;13.462;2023-05-10T00:31:41;6.23;;;5.10;;
8654;SDS011;13500;52.514;13.462;2023-05-10T00:34:09;10.83;;;5.13;;
8654;SDS011;13500;52.514;13.462;2023-05-10T00:36:38;5.20;;;4.70;;
8654;SDS011;13500;52.514;13.462;2023-05-10T00:39:06;5.27;;;4.73;;
8654;SDS011;13500;52.514;13.462;2023-05-10T00:41:34;6.33;;;4.97;;
8654;SDS011;13500;52.514;13.462;2023-05-10T00:44:04;7.10;;;4.67;;
8654;SDS011;13500;52.514;13.462;2023-05-10T00:46:32;5.93;;;4.63;;
8654;SDS011;13500;52.514;13.462;2023-05-10T00:49:00;8.03;;;4.73;;
8654;SDS011;13500;52.514;13.462;2023-05-10T00:51:29;4.77;;;4.30;;
8654;SDS011;13500;52.514;13.462;2023-05-10T00:53:59;6.03;;;4.87;;
8654;SDS011;13500;52.514;13.462;2023-05-10T00:56:27;5.53;;;4.83;;
8654;SDS011;13500;52.514;13.462;2023-05-10T00:58:56;7.40;;;4.63;;
8654;SDS011;13500;52.514;13.462;2023-05-10T01:01:24;7.23;;;5.40;;
8654;SDS011;13500;52.514;13.462;2023-05-10T01:03:52;7.13;;;4.83;;
8654;SDS011;13500;52.514;13.462;2023-05-10T01:06:20;6.33;;;4.90;;
8654;SDS011;13500;52.514;13.462;2023-05-10T01:08:48;4.97;;;4.33;;
8654;SDS011;13500;52.514;13.462;2023-05-10T01:11:18;5.30;;;4.57;;
8654;SDS011;13500;52.514;13.462;2023-05-10T01:13:47;5.53;;;4.60;;
8654;SDS011;13500;52.514;13.462;2023-05-10T01:16:18;4.87;;;4.47;;
8654;SDS011;13500;52.514;13.462;2023-05-10T01:18:47;7.33;;;4.97;;
8654;SDS011;13500;52.514;13.462;2023-05-10T01:21:17;6.30;;;4.63;;
8654;SDS011;13500;52.514;13.462;2023-05-10T01:26:48;7.13;;;4.70;;
8654;SDS011;13500;52.514;13.462;2023-05-10T01:32:43;5.33;;;4.50;;
8654;SDS011;13500;52.514;13.462;2023-05-10T01:35:15;5.90;;;4.80;;
8654;SDS011;13500;52.514;13.462;2023-05-10T01:37:46;7.70;;;5.07;;
8654;SDS011;13500;52.514;13.462;2023-05-10T01:40:19;7.43;;;4.80;;
8654;SDS011;13500;52.514;13.462;2023-05-10T01:42:51;8.87;;;4.63;;
8654;SDS011;13500;52.514;13.462;2023-05-10T01:45:24;8.20;;;5.13;;
8654;SDS011;13500;52.514;13.462;2023-05-10T01:48:02;5.13;;;4.63;;
8654;SDS011;13500;52.514;13.462;2023-05-10T01:50:33;8.20;;;4.87;;
8654;SDS011;13500;52.514;13.462;2023-05-10T01:53:05;6.73;;;4.67;;
8654;SDS011;13500;52.514;13.462;2023-05-10T01:55:35;8.13;;;4.83;;
8654;SDS011;13500;52.514;13.462;2023-05-10T01:58:08;6.23;;;4.73;;
8654;SDS011;13500;52.514;13.462;2023-05-10T02:00:40;7.17;;;4.93;;
8654;SDS011;13500;52.514;13.462;2023-05-10T02:03:11;5.83;;;4.80;;
8654;SDS011;13500;52.514;13.462;2023-05-10T02:05:40;5.70;;;4.83;;
8654;SDS011;13500;52.514;13.462;2023-05-10T02:08:08;5.93;;;4.73;;
8654;SDS011;13500;52.514;13.462;2023-05-10T02:10:37;7.47;;;4.57;;
8654;SDS011;13500;52.514;13.462;2023-05-10T02:13:07;5.43;;;4.87;;
8654;SDS011;13500;52.514;13.462;2023-05-10T02:15:36;7.07;;;4.90;;
8654;SDS011;13500;52.514;13.462;2023-05-10T02:18:04;6.27;;;4.90;;
8654;SDS011;13500;52.514;13.462;2023-05-10T02:20:34;7.53;;;4.70;;
8654;SDS011;13500;52.514;13.462;2023-05-10T02:23:02;5.30;;;4.80;;
8654;SDS011;13500;52.514;13.462;2023-05-10T02:25:31;7.73;;;5.30;;
8654;SDS011;13500;52.514;13.462;2023-05-10T02:27:59;6.13;;;5.00;;
8654;SDS011;13500;52.514;13.462;2023-05-10T02:30:30;6.43;;;4.87;;
8654;SDS011;13500;52.514;13.462;2023-05-10T02:32:59;5.93;;;5.03;;
8654;SDS011;13500;52.514;13.462;2023-05-10T02:35:27;5.97;;;4.67;;
8654;SDS011;13500;52.514;13.462;2023-05-10T02:37:57;7.47;;;4.80;;
8654;SDS011;13500;52.514;13.462;2023-05-10T02:40:27;5.97;;;4.60;;
8654;SDS011;13500;52.514;13.462;2023-05-10T02:42:56;6.93;;;4.80;;
8654;SDS011;13500;52.514;13.462;2023-05-10T02:45:26;6.70;;;4.60;;
8654;SDS011;13500;52.514;13.462;2023-05-10T02:47:55;7.90;;;4.73;;
8654;SDS011;13500;52.514;13.462;2023-05-10T02:50:24;5.23;;;4.73;;
8654;SDS011;13500;52.514;13.462;2023-05-10T02:52:56;6.17;;;4.40;;
8654;SDS011;13500;52.514;13.462;2023-05-10T02:55:31;5.47;;;4.70;;
8654;SDS011;13500;52.514;13.462;2023-05-10T02:58:19;8.47;;;5.00;;
8654;SDS011;13500;52.514;13.462;2023-05-10T03:00:47;8.03;;;4.63;;
8654;SDS011;13500;52.514;13.462;2023-05-10T03:03:15;5.50;;;4.43;;
8654;SDS011;13500;52.514;13.462;2023-05-10T03:05:43;5.77;;;4.40;;
8654;SDS011;13500;52.514;13.462;2023-05-10T03:08:12;8.67;;;4.83;;
8654;SDS011;13500;52.514;13.462;2023-05-10T03:10:41;4.77;;;4.27;;
8654;SDS011;13500;52.514;13.462;2023-05-10T03:13:21;7.00;;;4.37;;
8654;SDS011;13500;52.514;13.462;2023-05-10T03:15:55;7.60;;;4.80;;
8654;SDS011;13500;52.514;13.462;2023-05-10T03:18:28;7.27;;;4.70;;
8654;SDS011;13500;52.514;13.462;2023-05-10T03:20:59;8.00;;;4.40;;
8654;SDS011;13500;52.514;13.462;2023-05-10T03:23:35;6.00;;;4.80;;
8654;SDS011;13500;52.514;13.462;2023-05-10T03:26:04;7.03;;;4.70;;
8654;SDS011;13500;52.514;13.462;2023-05-10T03:28:32;6.83;;;4.57;;
8654;SDS011;13500;52.514;13.462;2023-05-10T03:31:03;7.10;;;4.70;;
8654;SDS011;13500;52.514;13.462;2023-05-10T03:33:32;5.87;;;4.50;;
8654;SDS011;13500;52.514;13.462;2023-05-10T03:36:01;6.47;;;4.50;;
8654;SDS011;13500;52.514;13.462;2023-05-10T03:38:28;9.17;;;4.67;;
8654;SDS011;13500;52.514;13.462;2023-05-10T03:40:58;5.27;;;4.57;;
8654;SDS011;13500;52.514;13.462;2023-05-10T03:43:26;6.53;;;4.70;;
8654;SDS011;13500;52.514;13.462;2023-05-10T03:45:54;6.53;;;4.27;;
8654;SDS011;13500;52.514;13.462;2023-05-10T03:48:22;6.03;;;4.50;;
8654;SDS011;13500;52.514;13.462;2023-05-10T03:50:49;5.00;;;4.43;;
8654;SDS011;13500;52.514;13.462;2023-05-10T03:53:17;7.17;;;4.60;;
8654;SDS011;13500;52.514;13.462;2023-05-10T03:55:45;6.17;;;4.53;;
8654;SDS011;13500;52.514;13.462;2023-05-10T03:58:15;6.50;;;4.33;;
8654;SDS011;13500;52.514;13.462;2023-05-10T04:00:42;7.07;;;4.80;;
8654;SDS011;13500;52.514;13.462;2023-05-10T04:03:12;5.67;;;4.40;;
8654;SDS011;13500;52.514;13.462;2023-05-10T04:05:41;8.03;;;4.30;;
8654;SDS011;13500;52.514;13.462;2023-05-10T04:08:09;6.53;;;4.80;;
8654;SDS011;13500;52.514;13.462;2023-05-10T04:10:37;5.50;;;4.70;;
8654;SDS011;13500;52.514;13.462;2023-05-10T04:13:04;10.67;;;5.00;;
8654;SDS011;13500;52.514;13.462;2023-05-10T04:15:34;6.93;;;4.43;;
8654;SDS011;13500;52.514;13.462;2023-05-10T04:18:02;7.10;;;4.30;;
8654;SDS011;13500;52.514;13.462;2023-05-10T04:20:33;8.97;;;4.73;;
8654;SDS011;13500;52.514;13.462;2023-05-10T04:23:01;8.53;;;4.73;;
8654;SDS011;13500;52.514;13.462;2023-05-10T04:25:29;7.33;;;4.40;;
8654;SDS011;13500;52.514;13.462;2023-05-10T04:27:57;5.67;;;4.20;;
8654;SDS011;13500;52.514;13.462;2023-05-10T04:30:25;8.80;;;4.60;;
8654;SDS011;13500;52.514;13.462;2023-05-10T04:32:56;5.93;;;4.40;;
8654;SDS011;13500;52.514;13.462;2023-05-10T04:35:24;5.37;;;4.00;;
8654;SDS011;13500;52.514;13.462;2023-05-10T04:37:52;6.00;;;4.10;;
8654;SDS011;13500;52.514;13.462;2023-05-10T04:40:20;10.30;;;4.17;;
8654;SDS011;13500;52.514;13.462;2023-05-10T04:42:48;6.37;;;3.83;;
8654;SDS011;13500;52.514;13.462;2023-05-10T04:45:16;6.90;;;4.70;;
8654;SDS011;13500;52.514;13.462;2023-05-10T04:47:43;4.60;;;3.73;;
8654;SDS011;13500;52.514;13.462;2023-05-10T04:50:13;9.43;;;4.57;;
8654;SDS011;13500;52.514;13.462;2023-05-10T04:52:41;5.87;;;3.80;;
8654;SDS011;13500;52.514;13.462;2023-05-10T04:55:09;6.70;;;4.10;;
8654;SDS011;13500;52.514;13.462;2023-05-10T04:57:37;6.60;;;4.20;;
8654;SDS011;13500;52.514;13.462;2023-05-10T05:00:05;7.43;;;3.93;;
8654;SDS011;13500;52.514;13.462;2023-05-10T05:02:34;7.60;;;4.00;;
8654;SDS011;13500;52.514;13.462;2023-05-10T05:05:03;5.13;;;3.63;;
8654;SDS011;13500;52.514;13.462;2023-05-10T05:07:32;4.93;;;3.60;;
8654;SDS011;13500;52.514;13.462;2023-05-10T05:10:00;4.33;;;3.90;;
8654;SDS011;13500;52.514;13.462;2023-05-10T05:12:28;9.23;;;4.07;;
8654;SDS011;13500;52.514;13.462;2023-05-10T05:14:56;5.23;;;3.80;;
8654;SDS011;13500;52.514;13.462;2023-05-10T05:17:24;9.27;;;3.93;;
8654;SDS011;13500;52.514;13.462;2023-05-10T05:19:52;7.10;;;3.80;;
8654;SDS011;13500;52.514;13.462;2023-05-10T05:22:23;4.80;;;3.63;;
8654;SDS011;13500;52.514;13.462;2023-05-10T05:24:55;8.40;;;4.53;;
8654;SDS011;13500;52.514;13.462;2023-05-10T05:27:24;7.13;;;3.53;;
8654;SDS011;13500;52.514;13.462;2023-05-10T05:29:54;5.70;;;3.33;;
8654;SDS011;13500;52.514;13.462;2023-05-10T05:32:22;6.63;;;3.60;;
8654;SDS011;13500;52.514;13.462;2023-05-10T05:34:50;4.80;;;3.47;;
8654;SDS011;13500;52.514;13.462;2023-05-10T05:37:18;4.30;;;3.60;;
8654;SDS011;13500;52.514;13.462;2023-05-10T05:39:47;3.90;;;3.50;;
8654;SDS011;13500;52.514;13.462;2023-05-10T05:42:17;5.50;;;3.20;;
8654;SDS011;13500;52.514;13.462;2023-05-10T05:44:45;6.13;;;3.40;;
8654;SDS011;13500;52.514;13.462;2023-05-10T05:47:13;7.87;;;3.50;;
8654;SDS011;13500;52.514;13.462;2023-05-10T05:49:41;5.73;;;3.60;;
8654;SDS011;13500;52.514;13.462;2023-05-10T05:52:09;4.77;;;3.20;;
8654;SDS011;13500;52.514;13.462;2023-05-10T05:54:37;6.60;;;3.30;;
8654;SDS011;13500;52.514;13.462;2023-05-10T05:57:04;5.03;;;3.50;;
8654;SDS011;13500;52.514;13.462;2023-05-10T05:59:34;6.70;;;3.30;;
8654;SDS011;13500;52.514;13.462;2023-05-10T06:02:03;4.43;;;2.83;;
8654;SDS011;13500;52.514;13.462;2023-05-10T06:04:31;4.07;;;3.10;;
8654;SDS011;13500;52.514;13.462;2023-05-10T06:06:59;7.50;;;3.30;;
8654;SDS011;13500;52.514;13.462;2023-05-10T06:09:27;3.50;;;2.97;;
8654;SDS011;13500;52.514;13.462;2023-05-10T06:11:55;7.63;;;2.90;;
8654;SDS011;13500;52.514;13.462;2023-05-10T06:14:23;3.50;;;3.07;;
8654;SDS011;13500;52.514;13.462;2023-05-10T06:16:52;5.27;;;2.77;;
8654;SDS011;13500;52.514;13.462;2023-05-10T06:19:20;4.10;;;2.77;;
8654;SDS011;13500;52.514;13.462;2023-05-10T06:21:48;7.20;;;2.83;;
8654;SDS011;13500;52.514;13.462;2023-05-10T06:24:19;4.93;;;2.73;;
8654;SDS011;13500;52.514;13.462;2023-05-10T06:26:47;5.77;;;2.83;;
8654;SDS011;13500;52.514;13.462;2023-05-10T06:29:16;4.23;;;2.80;;
8654;SDS011;13500;52.514;13.462;2023-05-10T06:31:44;3.93;;;2.63;;
8654;SDS011;13500;52.514;13.462;2023-05-10T06:34:13;4.03;;;2.37;;
8654;SDS011;13500;52.514;13.462;2023-05-10T06:36:42;4.27;;;2.70;;
8654;SDS011;13500;52.514;13.462;2023-05-10T06:39:10;5.23;;;2.53;;
8654;SDS011;13500;52.514;13.462;2023-05-10T06:41:38;5.40;;;2.80;;
8654;SDS011;13500;52.514;13.462;2023-05-10T06:44:06;6.00;;;3.13;;
8654;SDS011;13500;52.514;13.462;2023-05-10T06:46:34;3.57;;;2.80;;
8654;SDS011;13500;52.514;13.462;2023-05-10T06:49:02;4.47;;;2.73;;
8654;SDS011;13500;52.514;13.462;2023-05-10T06:51:32;5.13;;;2.80;;
8654;SDS011;13500;52.514;13.462;2023-05-10T06:54:00;6.90;;;2.37;;
8654;SDS011;13500;52.514;13.462;2023-05-10T06:56:28;5.90;;;2.80;;
8654;SDS011;13500;52.514;13.462;2023-05-10T06:58:56;9.57;;;2.50;;
8654;SDS011;13500;52.514;13.462;2023-05-10T07:01:24;5.33;;;2.80;;
8654;SDS011;13500;52.514;13.462;2023-05-10T07:03:52;4.73;;;2.73;;
8654;SDS011;13500;52.514;13.462;2023-05-10T07:06:20;3.00;;;2.60;;
8654;SDS011;13500;52.514;13.462;2023-05-10T07:09:00;3.73;;;2.57;;
8654;SDS011;13500;52.514;13.462;2023-05-10T07:11:28;3.17;;;2.80;;
8654;SDS011;13500;52.514;13.462;2023-05-10T07:13:56;4.90;;;2.77;;
8654;SDS011;13500;52.514;13.462;2023-05-10T07:16:26;3.37;;;2.60;;
8654;SDS011;13500;52.514;13.462;2023-05-10T07:18:54;3.90;;;2.70;;
8654;SDS011;13500;52.514;13.462;2023-05-10T07:21:40;4.00;;;2.80;;
8654;SDS011;13500;52.514;13.462;2023-05-10T07:24:11;3.20;;;2.43;;
8654;SDS011;13500;52.514;13.462;2023-05-10T07:26:38;5.63;;;3.20;;
8654;SDS011;13500;52.514;13.462;2023-05-10T07:29:06;4.13;;;3.10;;
8654;SDS011;13500;52.514;13.462;2023-05-10T07:31:34;3.60;;;2.83;;
8654;SDS011;13500;52.514;13.462;2023-05-10T07:34:02;3.30;;;3.00;;
8654;SDS011;13500;52.514;13.462;2023-05-10T07:36:30;5.60;;;3.23;;
8654;SDS011;13500;52.514;13.462;2023-05-10T07:38:59;4.93;;;2.60;;
8654;SDS011;13500;52.514;13.462;2023-05-10T07:41:29;4.70;;;2.83;;
8654;SDS011;13500;52.514;13.462;2023-05-10T07:43:57;5.30;;;2.83;;
8654;SDS011;13500;52.514;13.462;2023-05-10T07:46:24;3.73;;;3.30;;
8654;SDS011;13500;52.514;13.462;2023-05-10T07:48:52;8.23;;;3.00;;
8654;SDS011;13500;52.514;13.462;2023-05-10T07:51:20;4.17;;;3.03;;
8654;SDS011;13500;52.514;13.462;2023-05-10T07:53:48;3.63;;;2.60;;
8654;SDS011;13500;52.514;13.462;2023-05-10T07:56:20;5.97;;;2.93;;
8654;SDS011;13500;52.514;13.462;2023-05-10T07:58:50;4.93;;;2.90;;
8654;SDS011;13500;52.514;13.462;2023-05-10T08:01:18;7.87;;;3.40;;
8654;SDS011;13500;52.514;13.462;2023-05-10T08:03:46;3.83;;;2.63;;
8654;SDS011;13500;52.514;13.462;2023-05-10T08:06:15;7.50;;;2.73;;
8654;SDS011;13500;52.514;13.462;2023-05-10T08:08:45;6.13;;;2.83;;
8654;SDS011;13500;52.514;13.462;2023-05-10T08:11:15;4.03;;;2.60;;
8654;SDS011;13500;52.514;13.462;2023-05-10T08:13:46;5.90;;;2.90;;
8654;SDS011;13500;52.514;13.462;2023-05-10T08:16:25;5.80;;;3.00;;
8654;SDS011;13500;52.514;13.462;2023-05-10T08:18:56;4.13;;;2.60;;
8654;SDS011;13500;52.514;13.462;2023-05-10T08:21:23;5.17;;;2.70;;
8654;SDS011;13500;52.514;13.462;2023-05-10T08:23:52;3.97;;;2.90;;
8654;SDS011;13500;52.514;13.462;2023-05-10T08:26:20;2.87;;;2.67;;
8654;SDS011;13500;52.514;13.462;2023-05-10T08:28:48;3.07;;;2.60;;
8654;SDS011;13500;52.514;13.462;2023-05-10T08:31:16;3.43;;;2.60;;
8654;SDS011;13500;52.514;13.462;2023-05-10T08:33:45;4.63;;;3.00;;
8654;SDS011;13500;52.514;13.462;2023-05-10T08:36:13;4.20;;;2.60;;
8654;SDS011;13500;52.514;13.462;2023-05-10T08:38:46;6.30;;;2.47;;
8654;SDS011;13500;52.514;13.462;2023-05-10T08:41:15;5.30;;;2.50;;
8654;SDS011;13500;52.514;13.462;2023-05-10T08:43:43;3.67;;;2.80;;
8654;SDS011;13500;52.514;13.462;2023-05-10T08:46:12;5.23;;;2.57;;
8654;SDS011;13500;52.514;13.462;2023-05-10T08:48:43;5.53;;;2.90;;
8654;SDS011;13500;52.514;13.462;2023-05-10T08:51:15;5.43;;;2.90;;
8654;SDS011;13500;52.514;13.462;2023-05-10T08:53:45;4.60;;;2.90;;
8654;SDS011;13500;52.514;13.462;2023-05-10T08:56:13;3.83;;;2.73;;
8654;SDS011;13500;52.514;13.462;2023-05-10T08:58:44;5.73;;;2.93;;
8654;SDS011;13500;52.514;13.462;2023-05-10T09:01:12;5.10;;;2.50;;
8654;SDS011;13500;52.514;13.462;2023-05-10T09:03:41;5.33;;;2.57;;
8654;SDS011;13500;52.514;13.462;2023-05-10T09:06:10;3.20;;;2.90;;
8654;SDS011;13500;52.514;13.462;2023-05-10T09:08:39;5.57;;;2.50;;
8654;SDS011;13500;52.514;13.462;2023-05-10T09:11:09;7.90;;;3.00;;
8654;SDS011;13500;52.514;13.462;2023-05-10T09:13:37;3.97;;;2.77;;
8654;SDS011;13500;52.514;13.462;2023-05-10T09:16:05;3.93;;;2.80;;
8654;SDS011;13500;52.514;13.462;2023-05-10T09:18:46;3.07;;;2.60;;
8654;SDS011;13500;52.514;13.462;2023-05-10T09:21:17;6.40;;;2.90;;
8654;SDS011;13500;52.514;13.462;2023-05-10T09:23:47;5.20;;;3.10;;
8654;SDS011;13500;52.514;13.462;2023-05-10T09:26:16;7.63;;;2.77;;
8654;SDS011;13500;52.514;13.462;2023-05-10T09:28:51;2.97;;;2.67;;
8654;SDS011;13500;52.514;13.462;2023-05-10T09:31:20;3.40;;;2.33;;
8654;SDS011;13500;52.514;13.462;2023-05-10T09:33:48;4.73;;;3.00;;
8654;SDS011;13500;52.514;13.462;2023-05-10T09:36:18;4.47;;;2.83;;
8654;SDS011;13500;52.514;13.462;2023-05-10T09:38:46;3.53;;;2.70;;
8654;SDS011;13500;52.514;13.462;2023-05-10T09:41:15;6.20;;;2.60;;
8654;SDS011;13500;52.514;13.462;2023-05-10T09:43:44;5.77;;;2.57;;
8654;SDS011;13500;52.514;13.462;2023-05-10T09:46:12;3.63;;;2.83;;
8654;SDS011;13500;52.514;13.462;2023-05-10T09:48:41;2.77;;;2.57;;
8654;SDS011;13500;52.514;13.462;2023-05-10T09:51:10;5.27;;;2.40;;
8654;SDS011;13500;52.514;13.462;2023-05-10T09:53:39;3.00;;;2.47;;
8654;SDS011;13500;52.514;13.462;2023-05-10T09:56:07;5.23;;;2.90;;
8654;SDS011;13500;52.514;13.462;2023-05-10T09:58:36;2.60;;;2.40;;
8654;SDS011;13500;52.514;13.462;2023-05-10T10:01:04;4.37;;;2.50;;
8654;SDS011;13500;52.514;13.462;2023-05-10T10:03:32;2.80;;;2.57;;
8654;SDS011;13500;52.514;13.462;2023-05-10T10:06:00;2.83;;;2.40;;
8654;SDS011;13500;52.514;13.462;2023-05-10T10:08:28;2.83;;;2.53;;
8654;SDS011;13500;52.514;13.462;2023-05-10T10:10:57;4.07;;;2.43;;
8654;SDS011;13500;52.514;13.462;2023-05-10T10:13:25;4.27;;;2.40;;
8654;SDS011;13500;52.514;13.462;2023-05-10T10:15:53;4.43;;;2.43;;
8654;SDS011;13500;52.514;13.462;2023-05-10T10:18:21;5.03;;;3.63;;
8654;SDS011;13500;52.514;13.462;2023-05-10T10:20:54;5.63;;;2.70;;
8654;SDS011;13500;52.514;13.462;2023-05-10T10:23:22;3.43;;;2.60;;
8654;SDS011;13500;52.514;13.462;2023-05-10T10:25:50;3.47;;;2.83;;
8654;SDS011;13500;52.514;13.462;2023-05-10T10:28:23;2.53;;;2.33;;
8654;SDS011;13500;52.514;13.462;2023-05-10T10:30:54;4.23;;;2.70;;
8654;SDS011;13500;52.514;13.462;2023-05-10T10:33:39;2.60;;;2.40;;
8654;SDS011;13500;52.514;13.462;2023-05-10T10:36:08;3.53;;;2.50;;
8654;SDS011;13500;52.514;13.462;2023-05-10T10:38:36;3.87;;;2.70;;
8654;SDS011;13500;52.514;13.462;2023-05-10T10:41:09;2.93;;;2.60;;
8654;SDS011;13500;52.514;13.462;2023-05-10T10:43:39;2.60;;;2.20;;
8654;SDS011;13500;52.514;13.462;2023-05-10T10:46:11;3.03;;;2.70;;
8654;SDS011;13500;52.514;13.462;2023-05-10T10:48:40;2.80;;;2.37;;
8654;SDS011;13500;52.514;13.462;2023-05-10T10:51:09;3.77;;;2.43;;
8654;SDS011;13500;52.514;13.462;2023-05-10T10:53:40;4.23;;;2.63;;
8654;SDS011;13500;52.514;13.462;2023-05-10T10:56:09;4.37;;;2.30;;
8654;SDS011;13500;52.514;13.462;2023-05-10T10:58:41;3.17;;;2.60;;
8654;SDS011;13500;52.514;13.462;2023-05-10T11:01:13;4.97;;;3.40;;
8654;SDS011;13500;52.514;13.462;2023-05-10T11:03:54;2.60;;;2.40;;
8654;SDS011;13500;52.514;13.462;2023-05-10T11:06:45;2.80;;;2.40;;
8654;SDS011;13500;52.514;13.462;2023-05-10T11:09:13;3.37;;;2.67;;
8654;SDS011;13500;52.514;13.462;2023-05-10T11:11:51;4.20;;;3.27;;
8654;SDS011;13500;52.514;13.462;2023-05-10T11:14:22;6.37;;;2.77;;
8654;SDS011;13500;52.514;13.462;2023-05-10T11:16:50;2.70;;;2.50;;
8654;SDS011;13500;52.514;13.462;2023-05-10T11:19:18;5.43;;;2.87;;
8654;SDS011;13500;52.514;13.462;2023-05-10T11:21:47;5.13;;;2.47;;
8654;SDS011;13500;52.514;13.462;2023-05-10T11:24:16;4.80;;;2.77;;
8654;SDS011;13500;52.514;13.462;2023-05-10T11:26:45;3.10;;;2.30;;
8654;SDS011;13500;52.514;13.462;2023-05-10T11:29:13;3.70;;;2.50;;
8654;SDS011;13500;52.514;13.462;2023-05-10T11:31:45;6.90;;;2.80;;
8654;SDS011;13500;52.514;13.462;2023-05-10T11:34:22;7.70;;;2.40;;
8654;SDS011;13500;52.514;13.462;2023-05-10T11:36:51;4.00;;;2.93;;
8654;SDS011;13500;52.514;13.462;2023-05-10T11:39:20;3.80;;;2.70;;
8654;SDS011;13500;52.514;13.462;2023-05-10T11:41:48;3.60;;;2.37;;
8654;SDS011;13500;52.514;13.462;2023-05-10T11:44:16;2.70;;;2.47;;
8654;SDS011;13500;52.514;13.462;2023-05-10T11:46:46;4.33;;;2.30;;
8654;SDS011;13500;52.514;13.462;2023-05-10T11:49:14;4.63;;;2.70;;
8654;SDS011;13500;52.514;13.462;2023-05-10T11:51:42;4.60;;;2.53;;
8654;SDS011;13500;52.514;13.462;2023-05-10T11:54:10;7.23;;;2.60;;
8654;SDS011;13500;52.514;13.462;2023-05-10T11:56:38;6.47;;;2.70;;
8654;SDS011;13500;52.514;13.462;2023-05-10T11:59:07;5.20;;;2.50;;
8654;SDS011;13500;52.514;13.462;2023-05-10T12:01:35;6.77;;;2.40;;
8654;SDS011;13500;52.514;13.462;2023-05-10T12:04:05;9.83;;;2.83;;
8654;SDS011;13500;52.514;13.462;2023-05-10T12:06:36;6.80;;;2.53;;
8654;SDS011;13500;52.514;13.462;2023-05-10T12:09:05;3.90;;;2.63;;
8654;SDS011;13500;52.514;13.462;2023-05-10T12:11:36;7.30;;;2.77;;
8654;SDS011;13500;52.514;13.462;2023-05-10T12:14:08;8.20;;;2.47;;
8654;SDS011;13500;52.514;13.462;2023-05-10T12:16:36;3.77;;;2.50;;
8654;SDS011;13500;52.514;13.462;2023-05-10T12:19:06;5.63;;;2.70;;
8654;SDS011;13500;52.514;13.462;2023-05-10T12:21:34;3.40;;;2.30;;
8654;SDS011;13500;52.514;13.462;2023-05-10T12:24:02;3.00;;;2.40;;
8654;SDS011;13500;52.514;13.462;2023-05-10T12:26:31;3.97;;;2.50;;
8654;SDS011;13500;52.514;13.462;2023-05-10T12:29:13;4.13;;;2.40;;
8654;SDS011;13500;52.514;13.462;2023-05-10T12:31:54;7.23;;;2.60;;
8654;SDS011;13500;52.514;13.462;2023-05-10T12:34:30;4.93;;;2.70;;
8654;SDS011;13500;52.514;13.462;2023-05-10T12:36:59;4.23;;;2.43;;
8654;SDS011;13500;52.514;13.462;2023-05-10T12:39:37;5.37;;;2.43;;
8654;SDS011;13500;52.514;13.462;2023-05-10T12:42:06;6.07;;;2.53;;
8654;SDS011;13500;52.514;13.462;2023-05-10T12:44:34;7.50;;;2.60;;
8654;SDS011;13500;52.514;13.462;2023-05-10T12:47:01;4.00;;;2.50;;
8654;SDS011;13500;52.514;13.462;2023-05-10T12:49:31;4.27;;;2.50;;
8654;SDS011;13500;52.514;13.462;2023-05-10T12:51:58;6.63;;;2.47;;
8654;SDS011;13500;52.514;13.462;2023-05-10T12:54:26;4.33;;;2.40;;
8654;SDS011;13500;52.514;13.462;2023-05-10T12:56:54;4.40;;;2.37;;
8654;SDS011;13500;52.514;13.462;2023-05-10T12:59:22;4.53;;;2.37;;
8654;SDS011;13500;52.514;13.462;2023-05-10T13:01:50;4.73;;;2.57;;
8654;SDS011;13500;52.514;13.462;2023-05-10T13:04:18;6.77;;;2.80;;
8654;SDS011;13500;52.514;13.462;2023-05-10T13:06:47;5.73;;;2.73;;
8654;SDS011;13500;52.514;13.462;2023-05-10T13:09:15;4.37;;;2.30;;
8654;SDS011;13500;52.514;13.462;2023-05-10T13:11:43;4.40;;;2.50;;
8654;SDS011;13500;52.514;13.462;2023-05-10T13:14:11;4.83;;;2.23;;
8654;SDS011;13500;52.514;13.462;2023-05-10T13:16:39;3.47;;;2.20;;
8654;SDS011;13500;52.514;13.462;2023-05-10T13:19:07;3.27;;;2.20;;
8654;SDS011;13500;52.514;13.462;2023-05-10T13:21:35;5.43;;;2.07;;
8654;SDS011;13500;52.514;13.462;2023-05-10T13:24:05;4.77;;;2.60;;
8654;SDS011;13500;52.514;13.462;2023-05-10T13:26:32;2.57;;;2.37;;
8654;SDS011;13500;52.514;13.462;2023-05-10T13:29:00;4.90;;;2.50;;
8654;SDS011;13500;52.514;13.462;2023-05-10T13:31:28;7.17;;;2.30;;
8654;SDS011;13500;52.514;13.462;2023-05-10T13:33:56;4.70;;;2.23;;
8654;SDS011;13500;52.514;13.462;2023-05-10T13:36:24;3.60;;;2.40;;
8654;SDS011;13500;52.514;13.462;2023-05-10T13:38:52;3.07;;;2.20;;
8654;SDS011;13500;52.514;13.462;2023-05-10T13:41:21;4.93;;;2.40;;
8654;SDS011;13500;52.514;13.462;2023-05-10T13:43:49;3.60;;;2.20;;
8654;SDS011;13500;52.514;13.462;2023-05-10T13:46:17;5.20;;;2.50;;
8654;SDS011;13500;52.514;13.462;2023-05-10T13:48:45;4.60;;;2.70;;
8654;SDS011;13500;52.514;13.462;2023-05-10T13:51:13;4.80;;;2.87;;
8654;SDS011;13500;52.514;13.462;2023-05-10T13:53:41;3.73;;;2.40;;
8654;SDS011;13500;52.514;13.462;2023-05-10T13:56:09;6.30;;;2.40;;
8654;SDS011;13500;52.514;13.462;2023-05-10T13:58:38;5.53;;;3.10;;
8654;SDS011;13500;52.514;13.462;2023-05-10T14:01:06;2.57;;;2.30;;
8654;SDS011;13500;52.514;13.462;2023-05-10T14:03:34;3.87;;;2.30;;
8654;SDS011;13500;52.514;13.462;2023-05-10T14:06:02;2.37;;;2.13;;
8654;SDS011;13500;52.514;13.462;2023-05-10T14:08:30;2.47;;;2.23;;
8654;SDS011;13500;52.514;13.462;2023-05-10T14:10:58;6.37;;;2.30;;
8654;SDS011;13500;52.514;13.462;2023-05-10T14:13:26;3.67;;;2.00;;
8654;SDS011;13500;52.514;13.462;2023-05-10T14:15:55;6.20;;;2.23;;
8654;SDS011;13500;52.514;13.462;2023-05-10T14:18:23;4.60;;;2.50;;
8654;SDS011;13500;52.514;13.462;2023-05-10T14:20:51;5.07;;;2.20;;
8654;SDS011;13500;52.514;13.462;2023-05-10T14:23:19;4.33;;;2.07;;
8654;SDS011;13500;52.514;13.462;2023-05-10T14:25:50;2.57;;;2.27;;
8654;SDS011;13500;52.514;13.462;2023-05-10T14:28:18;5.03;;;2.50;;
8654;SDS011;13500;52.514;13.462;2023-05-10T14:30:47;3.17;;;2.37;;
8654;SDS011;13500;52.514;13.462;2023-05-10T14:33:16;4.60;;;2.10;;
8654;SDS011;13500;52.514;13.462;2023-05-10T14:35:44;3.67;;;2.20;;
8654;SDS011;13500;52.514;13.462;2023-05-10T14:38:12;4.53;;;2.50;;
8654;SDS011;13500;52.514;13.462;2023-05-10T14:40:40;4.60;;;2.20;;
8654;SDS011;13500;52.514;13.462;2023-05-10T14:43:09;5.40;;;2.13;;
8654;SDS011;13500;52.514;13.462;2023-05-10T14:45:36;3.30;;;2.07;;
8654;SDS011;13500;52.514;13.462;2023-05-10T14:48:04;5.23;;;2.23;;
8654;SDS011;13500;52.514;13.462;2023-05-10T14:50:34;2.43;;;2.23;;
8654;SDS011;13500;52.514;13.462;2023-05-10T14:53:03;4.10;;;2.03;;
8654;SDS011;13500;52.514;13.462;2023-05-10T14:55:31;4.13;;;2.30;;
8654;SDS011;13500;52.514;13.462;2023-05-10T14:57:59;3.90;;;2.53;;
8654;SDS011;13500;52.514;13.462;2023-05-10T15:00:27;5.93;;;2.57;;
8654;SDS011;13500;52.514;13.462;2023-05-10T15:02:56;6.87;;;2.57;;
8654;SDS011;13500;52.514;13.462;2023-05-10T15:05:25;3.10;;;2.50;;
8654;SDS011;13500;52.514;13.462;2023-05-10T15:07:55;7.60;;;2.70;;